Time;durP1;ratioP1;P1;durP2;ratioP2;P2;SDS_P1;SDS_P2;PMS_P1;PMS_P2;Temp;Humidity;BMP_temperature;BMP_pressure;BME280_temperature;BME280_humidity;BME280_pressure;Samples;Min_cycle;Max_cycle;Signal;HPM_P1;HPM_P2
2021/12/16 00:09:25;;;;;;;17.63;11.63;;;8.20;99.90;;;;;;5065111;28;20478;-48
2021/12/16 00:29:02;;;;;;;19.10;12.50;;;8.50;99.90;;;;;;5064228;28;20476;-48
2021/12/16 00:29:21;;;;;;;20.80;14.80;;;8.60;99.90;;;;;;5004222;28;20591;-47
2021/12/16 00:31:57;;;;;;;23.80;15.50;;;8.60;99.90;;;;;;5040911;28;21009;-47
2021/12/16 00:34:28;;;;;;;20.63;14.20;;;8.60;99.90;;;;;;5049067;28;20490;-47
2021/12/16 00:36:54;;;;;;;18.00;13.20;;;8.60;99.90;;;;;;5063063;28;20822;-48
2021/12/16 00:39:27;;;;;;;19.97;14.57;;;8.50;99.90;;;;;;5062486;28;20486;-48
2021/12/16 00:42:00;;;;;;;19.87;14.17;;;8.40;99.90;;;;;;5052018;28;20466;-48
2021/12/16 00:45:00;;;;;;;19.63;13.47;;;8.40;99.90;;;;;;5066091;28;20807;-48
2021/12/16 00:47:32;;;;;;;18.27;12.50;;;8.40;99.90;;;;;;5065660;28;20490;-48
2021/12/16 00:50:18;;;;;;;17.70;13.00;;;8.40;99.90;;;;;;5070825;28;20466;-48
2021/12/16 00:55:40;;;;;;;22.60;13.40;;;8.30;99.90;;;;;;5069998;28;21074;-48
2021/12/16 00:58:06;;;;;;;18.27;12.33;;;8.30;99.90;;;;;;5080923;28;20492;-48
2021/12/16 01:00:33;;;;;;;16.80;13.03;;;8.30;99.90;;;;;;5077141;28;20875;-47
2021/12/16 01:03:12;;;;;;;16.10;12.13;;;8.20;99.90;;;;;;5086440;27;21024;-48
2021/12/16 01:08:45;;;;;;;23.70;14.80;;;8.00;99.90;;;;;;5071460;28;20479;-47
2021/12/16 01:33:59;;;;;;;27.80;17.10;;;8.00;99.90;;;;;;5049901;28;20594;-47
2021/12/16 01:36:42;;;;;;;21.27;14.20;;;8.10;99.90;;;;;;5065020;28;20997;-48
2021/12/16 01:39:49;;;;;;;26.50;16.23;;;8.10;99.90;;;;;;5061561;28;20482;-48
2021/12/16 01:42:34;;;;;;;23.90;14.93;;;8.00;99.90;;;;;;5072709;28;20469;-47
2021/12/16 01:48:11;;;;;;;22.60;15.90;;;8.10;99.90;;;;;;5065893;28;21806;-48
2021/12/16 01:50:42;;;;;;;24.57;14.93;;;8.20;99.90;;;;;;5077567;28;20481;-48
2021/12/16 01:53:24;;;;;;;27.10;17.20;;;8.20;99.90;;;;;;5079129;28;20469;-47
2021/12/16 01:55:59;;;;;;;26.33;18.30;;;8.30;99.90;;;;;;5071181;28;20962;-47
2021/12/16 01:58:30;;;;;;;30.10;18.80;;;8.40;99.90;;;;;;5078438;28;21167;-48
2021/12/16 02:01:12;;;;;;;33.47;17.90;;;8.20;99.90;;;;;;5082165;28;20479;-47
2021/12/16 02:03:55;;;;;;;25.93;16.70;;;8.10;99.90;;;;;;5074367;28;20584;-47
2021/12/16 02:06:43;;;;;;;20.80;14.17;;;8.10;99.90;;;;;;5068094;28;20521;-48
2021/12/16 02:09:20;;;;;;;24.10;15.30;;;8.10;99.90;;;;;;5077718;28;20525;-47
2021/12/16 02:11:54;;;;;;;21.77;15.10;;;8.10;99.90;;;;;;5085326;28;20471;-47
2021/12/16 02:28:18;;;;;;;30.20;19.50;;;8.00;99.90;;;;;;5073635;28;20563;-48
2021/12/16 02:31:22;;;;;;;29.03;17.93;;;7.90;99.90;;;;;;5075277;28;20477;-48
2021/12/16 02:36:30;;;;;;;26.83;17.33;;;8.00;99.90;;;;;;5049646;28;20488;-47
2021/12/16 02:39:02;;;;;;;30.63;19.60;;;8.10;99.90;;;;;;5048109;28;20886;-48
2021/12/16 02:41:29;;;;;;;32.80;18.40;;;8.10;99.90;;;;;;5052499;28;20477;-48
2021/12/16 02:44:20;;;;;;;30.93;18.87;;;8.10;99.90;;;;;;5079315;28;20474;-47
2021/12/16 02:49:34;;;;;;;28.17;17.30;;;7.90;99.90;;;;;;5063814;28;20483;-48
2021/12/16 02:52:01;;;;;;;34.67;21.00;;;8.00;99.90;;;;;;5081912;28;20484;-47
2021/12/16 02:54:29;;;;;;;30.83;20.73;;;8.10;99.90;;;;;;5080964;28;20484;-48
2021/12/16 02:56:56;;;;;;;32.90;21.10;;;8.10;99.90;;;;;;5076483;28;20563;-47
2021/12/16 02:59:27;;;;;;;30.20;18.97;;;8.00;99.90;;;;;;5071824;28;20523;-47
2021/12/16 03:01:57;;;;;;;33.20;20.10;;;7.90;99.90;;;;;;5091510;28;20493;-47
2021/12/16 03:04:27;;;;;;;32.90;21.03;;;7.90;99.90;;;;;;5073804;28;20491;-47
2021/12/16 03:06:57;;;;;;;32.43;21.73;;;7.90;99.90;;;;;;5068407;28;20486;-47
2021/12/16 03:09:54;;;;;;;34.77;21.30;;;8.00;99.90;;;;;;5093428;27;20477;-48
2021/12/16 03:12:46;;;;;;;34.27;20.70;;;7.90;99.90;;;;;;5079427;28;20473;-47
2021/12/16 03:15:24;;;;;;;34.50;20.40;;;7.80;99.90;;;;;;5068026;28;20942;-47
2021/12/16 03:17:58;;;;;;;31.37;17.80;;;7.90;99.90;;;;;;5088844;28;20487;-47
2021/12/16 03:20:34;;;;;;;28.17;18.43;;;8.00;99.90;;;;;;5073144;28;20490;-49
2021/12/16 03:23:18;;;;;;;28.20;17.93;;;7.90;99.90;;;;;;5079281;28;20571;-47
2021/12/16 03:25:59;;;;;;;31.67;18.50;;;8.00;99.90;;;;;;5052130;28;20592;-49
2021/12/16 03:31:35;;;;;;;31.60;18.27;;;8.00;99.90;;;;;;5077373;28;20646;-47
2021/12/16 03:34:24;;;;;;;34.10;19.77;;;8.10;99.90;;;;;;5074844;28;20568;-48
2021/12/16 03:37:13;;;;;;;36.60;19.00;;;8.10;99.90;;;;;;5038589;28;20476;-47
2021/12/16 03:39:42;;;;;;;30.10;18.77;;;8.00;99.90;;;;;;5062554;28;20472;-47
2021/12/16 03:42:09;;;;;;;31.47;20.43;;;8.00;99.90;;;;;;5064693;28;20492;-47
2021/12/16 03:44:53;;;;;;;31.37;19.13;;;8.00;99.90;;;;;;5084419;28;20487;-47
2021/12/16 03:47:24;;;;;;;32.90;20.33;;;8.00;99.90;;;;;;5040647;28;20979;-48
2021/12/16 03:49:51;;;;;;;27.10;20.27;;;8.00;99.90;;;;;;5048968;28;20971;-48
2021/12/16 03:52:19;;;;;;;34.20;21.23;;;7.90;99.90;;;;;;5076417;28;20492;-49
2021/12/16 03:54:51;;;;;;;27.63;18.30;;;8.00;99.90;;;;;;5078337;28;20495;-47
2021/12/16 03:57:21;;;;;;;34.20;20.63;;;8.10;99.90;;;;;;5056569;28;20541;-47
2021/12/16 03:59:50;;;;;;;37.20;22.57;;;8.10;99.90;;;;;;5076280;28;21292;-48
2021/12/16 04:02:20;;;;;;;29.03;20.00;;;8.20;99.90;;;;;;5077720;28;20485;-47
2021/12/16 04:04:51;;;;;;;33.03;18.43;;;8.20;99.90;;;;;;5068998;28;20558;-47
2021/12/16 04:07:19;;;;;;;28.87;18.13;;;8.20;99.90;;;;;;5075006;28;20862;-47
2021/12/16 04:09:46;;;;;;;37.50;21.80;;;8.30;99.90;;;;;;5075445;28;20482;-47
2021/12/16 04:12:19;;;;;;;36.83;21.43;;;8.20;99.90;;;;;;5066814;28;20962;-47
2021/12/16 04:14:46;;;;;;;32.07;20.20;;;8.10;99.90;;;;;;5077850;28;20490;-47
2021/12/16 04:17:15;;;;;;;35.73;19.53;;;8.10;99.90;;;;;;5058655;28;20478;-47
2021/12/16 04:19:42;;;;;;;29.00;17.37;;;8.10;99.90;;;;;;5075640;28;20991;-48
2021/12/16 04:22:11;;;;;;;24.23;17.80;;;8.20;99.90;;;;;;5069755;28;20483;-47
2021/12/16 04:24:40;;;;;;;29.60;18.07;;;8.20;99.90;;;;;;5083838;28;20491;-47
2021/12/16 04:27:08;;;;;;;34.80;18.80;;;8.20;99.90;;;;;;5082929;28;21012;-47
2021/12/16 04:29:35;;;;;;;27.77;18.87;;;8.20;99.90;;;;;;5053026;28;20510;-47
2021/12/16 04:32:03;;;;;;;30.97;19.27;;;8.10;99.90;;;;;;5083208;28;20491;-47
2021/12/16 04:34:32;;;;;;;32.23;19.00;;;7.90;99.90;;;;;;5083462;28;20483;-47
2021/12/16 04:36:59;;;;;;;34.13;19.13;;;8.00;99.90;;;;;;5082531;28;20490;-47
2021/12/16 04:39:32;;;;;;;27.73;17.10;;;8.10;99.90;;;;;;5083496;28;20489;-48
2021/12/16 04:42:00;;;;;;;35.47;20.23;;;8.00;99.90;;;;;;5082614;28;20496;-47
2021/12/16 04:47:49;;;;;;;31.03;19.43;;;8.00;99.90;;;;;;5062796;28;20480;-47
2021/12/16 04:50:19;;;;;;;29.80;18.53;;;8.10;99.90;;;;;;5085366;28;21024;-47
2021/12/16 04:52:46;;;;;;;33.27;19.90;;;8.00;99.90;;;;;;5087968;28;20546;-47
2021/12/16 04:55:15;;;;;;;29.97;19.17;;;8.00;99.90;;;;;;5077203;28;20884;-47
2021/12/16 04:57:43;;;;;;;32.87;20.10;;;8.10;99.90;;;;;;5073616;28;20888;-47
2021/12/16 05:00:13;;;;;;;32.93;20.43;;;8.10;99.90;;;;;;5085387;28;20470;-47
2021/12/16 05:02:40;;;;;;;29.23;19.07;;;8.00;99.90;;;;;;5083465;28;20490;-48
2021/12/16 05:05:08;;;;;;;33.23;20.17;;;8.00;99.90;;;;;;5087542;28;20534;-47
2021/12/16 05:07:37;;;;;;;32.93;19.73;;;8.10;99.90;;;;;;5090753;28;20542;-48
2021/12/16 05:10:06;;;;;;;28.90;19.67;;;8.20;99.90;;;;;;5087919;28;20500;-47
2021/12/16 05:12:36;;;;;;;26.97;18.90;;;8.20;99.90;;;;;;5084012;28;21140;-48
2021/12/16 05:15:07;;;;;;;33.63;20.67;;;8.10;99.90;;;;;;5085771;28;20462;-47
2021/12/16 05:17:38;;;;;;;30.90;20.13;;;8.10;99.90;;;;;;5077692;28;20495;-48
2021/12/16 05:20:09;;;;;;;30.53;20.30;;;8.10;99.90;;;;;;5055549;28;20575;-47
2021/12/16 05:25:34;;;;;;;37.37;21.03;;;8.20;99.90;;;;;;5081705;28;20480;-47
2021/12/16 05:28:00;;;;;;;30.37;20.40;;;8.20;99.90;;;;;;5085197;28;20569;-48
2021/12/16 05:30:27;;;;;;;32.57;20.23;;;8.10;99.90;;;;;;5086496;28;21069;-47
2021/12/16 05:32:54;;;;;;;33.07;20.40;;;8.00;99.90;;;;;;5086301;28;20541;-47
2021/12/16 05:35:22;;;;;;;33.27;19.77;;;8.00;99.90;;;;;;5081690;28;20537;-47
2021/12/16 05:37:51;;;;;;;29.37;18.73;;;8.00;99.90;;;;;;5083044;28;20482;-48
2021/12/16 05:40:23;;;;;;;29.73;19.57;;;8.00;99.90;;;;;;5082550;28;20527;-47
2021/12/16 05:42:52;;;;;;;32.53;19.63;;;7.90;99.90;;;;;;5080668;28;21024;-47
2021/12/16 05:45:19;;;;;;;30.50;20.60;;;7.90;99.90;;;;;;5082125;28;20482;-48
2021/12/16 05:47:46;;;;;;;34.20;20.80;;;8.00;99.90;;;;;;5082355;28;20487;-47
2021/12/16 05:50:13;;;;;;;31.77;19.83;;;8.10;99.90;;;;;;5077347;28;20531;-47
2021/12/16 05:52:40;;;;;;;31.53;20.27;;;8.20;99.90;;;;;;5084539;28;20533;-47
2021/12/16 05:55:11;;;;;;;26.40;19.30;;;8.20;99.90;;;;;;5083858;28;20489;-47
2021/12/16 05:57:38;;;;;;;31.30;19.57;;;8.20;99.90;;;;;;5080889;28;20531;-47
2021/12/16 06:00:09;;;;;;;32.50;20.37;;;8.20;99.90;;;;;;5083565;28;20970;-48
2021/12/16 06:02:36;;;;;;;40.83;21.13;;;8.10;99.90;;;;;;5080198;28;20535;-48
2021/12/16 06:05:03;;;;;;;28.70;18.30;;;8.00;99.90;;;;;;5079769;28;20602;-48
2021/12/16 06:07:30;;;;;;;31.33;18.63;;;8.10;99.90;;;;;;5072755;28;20537;-48
2021/12/16 06:09:57;;;;;;;31.73;19.80;;;8.10;99.90;;;;;;5081342;28;21191;-48
2021/12/16 06:12:26;;;;;;;44.17;21.23;;;8.10;99.90;;;;;;5076121;28;21005;-47
2021/12/16 06:15:11;;;;;;;27.87;18.23;;;8.10;99.90;;;;;;5090477;28;20506;-47
2021/12/16 06:28:47;;;;;;;26.77;19.20;;;8.30;99.90;;;;;;5078729;28;20527;-48
2021/12/16 06:31:15;;;;;;;35.90;20.70;;;8.40;99.90;;;;;;5077654;28;20481;-48
2021/12/16 06:33:42;;;;;;;33.33;18.80;;;8.40;99.90;;;;;;5081934;28;20564;-48
2021/12/16 06:36:09;;;;;;;31.63;19.10;;;8.40;99.90;;;;;;5048113;28;20491;-48
2021/12/16 06:38:36;;;;;;;32.17;20.30;;;8.30;99.90;;;;;;5084542;28;20536;-47
2021/12/16 06:41:03;;;;;;;28.73;18.23;;;8.20;99.90;;;;;;5078821;28;20493;-47
2021/12/16 06:43:31;;;;;;;30.73;19.80;;;8.20;99.90;;;;;;5081677;28;20491;-48
2021/12/16 06:46:02;;;;;;;32.40;19.70;;;8.20;99.90;;;;;;5072450;28;20829;-47
2021/12/16 06:48:32;;;;;;;30.43;20.70;;;8.20;99.90;;;;;;5079440;28;20511;-47
2021/12/16 06:51:04;;;;;;;33.40;20.10;;;8.20;99.90;;;;;;5073690;28;20575;-47
2021/12/16 06:53:44;;;;;;;27.00;19.07;;;8.20;99.90;;;;;;5080734;28;21100;-48
2021/12/16 06:56:16;;;;;;;34.47;22.60;;;8.10;99.90;;;;;;5069093;28;20484;-47
2021/12/16 06:58:47;;;;;;;34.90;20.43;;;8.10;99.90;;;;;;5068790;28;20496;-47
2021/12/16 07:01:30;;;;;;;38.03;24.20;;;8.20;99.90;;;;;;5073701;28;20491;-47
2021/12/16 07:03:57;;;;;;;34.37;21.73;;;8.20;99.90;;;;;;5055638;28;20488;-47
2021/12/16 07:06:27;;;;;;;45.77;26.10;;;8.30;99.90;;;;;;5075159;28;20484;-47
2021/12/16 07:08:57;;;;;;;42.27;22.93;;;8.20;99.90;;;;;;5041308;28;21198;-47
2021/12/16 07:11:24;;;;;;;30.93;19.33;;;8.20;99.90;;;;;;5053766;28;21086;-47
2021/12/16 07:13:57;;;;;;;37.50;20.93;;;8.20;99.90;;;;;;5078034;28;20474;-47
2021/12/16 07:16:27;;;;;;;41.07;23.93;;;8.20;99.90;;;;;;5078040;28;20597;-47
2021/12/16 07:18:54;;;;;;;33.30;22.90;;;8.20;99.90;;;;;;5045489;28;20887;-47
2021/12/16 07:21:23;;;;;;;32.20;22.70;;;8.20;99.90;;;;;;5076117;28;20492;-47
2021/12/16 07:23:50;;;;;;;34.77;23.50;;;8.30;99.90;;;;;;5074181;28;20459;-47
2021/12/16 07:26:16;;;;;;;34.93;21.43;;;8.30;99.90;;;;;;5070900;28;20536;-47
2021/12/16 07:28:43;;;;;;;35.60;23.60;;;8.40;99.90;;;;;;5081287;28;20485;-47
2021/12/16 07:31:10;;;;;;;30.10;18.63;;;8.40;99.90;;;;;;5075395;28;21245;-47
2021/12/16 07:33:38;;;;;;;33.80;20.47;;;8.30;99.90;;;;;;5072458;28;20543;-47
2021/12/16 07:36:05;;;;;;;33.17;19.70;;;8.40;99.90;;;;;;5084423;28;20482;-48
2021/12/16 07:38:32;;;;;;;30.70;19.83;;;8.40;99.90;;;;;;5074408;28;20484;-47
2021/12/16 07:40:59;;;;;;;34.93;22.13;;;8.30;99.90;;;;;;5072892;28;20879;-47
2021/12/16 07:43:52;;;;;;;33.20;20.80;;;8.30;99.90;;;;;;5068431;28;20472;-47
2021/12/16 07:46:19;;;;;;;31.33;19.20;;;8.30;99.90;;;;;;5079030;28;20482;-48
2021/12/16 07:48:47;;;;;;;35.73;21.73;;;8.30;99.90;;;;;;5077834;28;20515;-48
2021/12/16 07:51:14;;;;;;;35.87;21.60;;;8.20;99.90;;;;;;5069239;28;20532;-48
2021/12/16 07:53:42;;;;;;;29.30;19.87;;;8.20;99.90;;;;;;5073205;28;20485;-48
2021/12/16 07:56:10;;;;;;;34.10;22.10;;;8.20;99.90;;;;;;5068747;28;20481;-47
2021/12/16 07:58:37;;;;;;;34.83;23.00;;;8.30;99.90;;;;;;5038289;28;20495;-48
2021/12/16 08:01:05;;;;;;;38.13;22.90;;;8.30;99.90;;;;;;5069091;28;21148;-47
2021/12/16 08:03:36;;;;;;;36.97;22.90;;;8.40;99.90;;;;;;5064290;28;26091;-48
2021/12/16 08:06:08;;;;;;;38.67;25.43;;;8.40;99.90;;;;;;5070976;28;20479;-47
2021/12/16 08:08:35;;;;;;;39.40;24.57;;;8.40;99.90;;;;;;5067523;28;20482;-48
2021/12/16 08:11:02;;;;;;;40.53;23.07;;;8.50;99.90;;;;;;5073980;28;20551;-48
2021/12/16 08:13:29;;;;;;;35.03;22.87;;;8.50;99.90;;;;;;5061180;28;20514;-48
2021/12/16 08:15:55;;;;;;;36.70;24.03;;;8.50;99.90;;;;;;5079180;28;20477;-47
2021/12/16 08:18:22;;;;;;;35.80;21.73;;;8.50;99.90;;;;;;5072854;28;20468;-48
2021/12/16 08:20:49;;;;;;;34.13;21.10;;;8.50;99.90;;;;;;5072413;28;20534;-48
2021/12/16 08:23:17;;;;;;;37.77;21.50;;;8.50;99.90;;;;;;5055219;28;20466;-47
2021/12/16 08:25:44;;;;;;;33.27;18.83;;;8.50;99.90;;;;;;5075553;28;20483;-47
2021/12/16 08:28:11;;;;;;;27.43;18.77;;;8.60;99.90;;;;;;5078207;28;20880;-49
2021/12/16 08:30:41;;;;;;;32.17;19.27;;;8.60;99.90;;;;;;5079698;28;20934;-48
2021/12/16 08:33:11;;;;;;;37.57;22.90;;;8.60;99.90;;;;;;5078331;28;20830;-47
2021/12/16 08:35:40;;;;;;;36.57;20.90;;;8.70;99.90;;;;;;5071645;28;21181;-47
2021/12/16 08:38:07;;;;;;;33.73;21.23;;;8.70;99.90;;;;;;5080497;28;20487;-48
2021/12/16 08:40:36;;;;;;;42.40;21.90;;;8.70;99.90;;;;;;5078998;28;20483;-48
2021/12/16 08:43:03;;;;;;;31.23;20.30;;;8.70;99.90;;;;;;5080141;28;20469;-47
2021/12/16 08:45:33;;;;;;;33.27;20.90;;;8.70;99.90;;;;;;5076541;28;20492;-48
2021/12/16 08:48:01;;;;;;;28.47;18.60;;;8.80;99.90;;;;;;5080032;28;20534;-48
2021/12/16 08:50:31;;;;;;;35.10;21.70;;;8.80;99.90;;;;;;5076090;28;20482;-48
2021/12/16 08:53:00;;;;;;;50.80;28.97;;;8.90;99.90;;;;;;5078032;28;20470;-49
2021/12/16 08:55:32;;;;;;;37.17;22.33;;;8.90;99.90;;;;;;5079895;28;20890;-47
2021/12/16 08:58:01;;;;;;;34.10;21.03;;;8.90;99.90;;;;;;5078598;28;20888;-48
2021/12/16 09:00:31;;;;;;;34.60;21.90;;;8.90;99.90;;;;;;5081065;28;20476;-48
2021/12/16 09:02:58;;;;;;;33.93;21.17;;;9.00;99.90;;;;;;5083663;28;20881;-47
2021/12/16 09:05:26;;;;;;;30.00;20.77;;;9.00;99.90;;;;;;5075897;28;20478;-47
2021/12/16 09:07:53;;;;;;;37.93;20.03;;;9.00;99.90;;;;;;5070693;28;20472;-48
2021/12/16 09:10:25;;;;;;;26.93;19.80;;;9.00;99.90;;;;;;5076688;28;20475;-47
2021/12/16 09:13:02;;;;;;;39.97;21.93;;;9.10;99.90;;;;;;5079472;28;20473;-48
2021/12/16 09:15:33;;;;;;;45.43;26.13;;;9.10;99.90;;;;;;5076899;28;20463;-47
2021/12/16 09:18:00;;;;;;;59.80;32.07;;;9.20;99.90;;;;;;5074319;28;20484;-47
2021/12/16 09:20:27;;;;;;;39.17;22.80;;;9.20;99.90;;;;;;5075343;28;20505;-47
2021/12/16 09:22:54;;;;;;;36.60;21.60;;;9.20;99.90;;;;;;5092898;28;20483;-48
2021/12/16 09:25:21;;;;;;;40.37;25.20;;;9.20;99.90;;;;;;5075025;28;20525;-47
2021/12/16 09:27:49;;;;;;;62.17;35.80;;;9.20;99.90;;;;;;5071699;28;21038;-47
2021/12/16 09:30:19;;;;;;;49.03;29.60;;;9.30;99.90;;;;;;5073522;28;20486;-47
2021/12/16 09:32:51;;;;;;;34.63;21.70;;;9.30;99.90;;;;;;5056778;28;20518;-48
2021/12/16 09:35:18;;;;;;;31.27;21.10;;;9.30;99.90;;;;;;5075256;28;20548;-48
2021/12/16 09:37:46;;;;;;;35.13;21.70;;;9.30;99.90;;;;;;5056866;28;20479;-48
2021/12/16 09:40:21;;;;;;;34.07;20.73;;;9.40;99.90;;;;;;5093627;28;20533;-47
2021/12/16 09:42:48;;;;;;;33.47;20.80;;;9.40;99.90;;;;;;5076952;28;20489;-48
2021/12/16 09:45:15;;;;;;;34.83;21.47;;;9.40;99.90;;;;;;5079355;28;20949;-47
2021/12/16 09:47:44;;;;;;;32.87;20.53;;;9.40;99.90;;;;;;5074142;28;20881;-49
2021/12/16 09:50:16;;;;;;;32.10;22.00;;;9.40;99.90;;;;;;5093033;28;20490;-47
2021/12/16 09:52:43;;;;;;;39.80;22.40;;;9.40;99.90;;;;;;5079429;28;20537;-47
2021/12/16 09:55:10;;;;;;;37.97;21.77;;;9.50;99.90;;;;;;5079511;28;20783;-47
2021/12/16 09:57:37;;;;;;;33.10;21.97;;;9.50;99.90;;;;;;5079319;28;20623;-48
2021/12/16 10:00:05;;;;;;;39.87;23.97;;;9.60;99.90;;;;;;5076773;28;20492;-47
2021/12/16 10:02:34;;;;;;;35.57;23.50;;;9.60;99.90;;;;;;5074143;28;20487;-48
2021/12/16 10:05:01;;;;;;;42.13;25.90;;;9.70;99.90;;;;;;5070345;28;20582;-47
2021/12/16 10:07:33;;;;;;;39.40;26.23;;;9.70;99.90;;;;;;5086463;28;21280;-47
2021/12/16 10:10:02;;;;;;;43.80;27.93;;;9.80;99.90;;;;;;5081574;28;20478;-48
2021/12/16 10:12:35;;;;;;;31.33;21.70;;;9.80;99.90;;;;;;5083208;28;20499;-47
2021/12/16 10:17:19;;;;;;;35.73;22.97;;;9.90;99.90;;;;;;5067729;28;20480;-47
2021/12/16 10:17:51;;;;;;;41.40;24.30;;;9.90;99.90;;;;;;5078286;28;20480;-47
2021/12/16 10:20:22;;;;;;;37.63;24.10;;;10.00;99.90;;;;;;5071487;28;20476;-47
2021/12/16 10:22:51;;;;;;;35.27;23.27;;;10.00;99.90;;;;;;5041188;28;20244;-47
2021/12/16 10:25:22;;;;;;;34.53;23.03;;;10.00;99.90;;;;;;5051917;28;20928;-47
2021/12/16 10:28:00;;;;;;;39.50;24.60;;;10.10;99.90;;;;;;5043536;28;20526;-47
2021/12/16 10:30:39;;;;;;;41.57;24.43;;;10.10;99.90;;;;;;5066973;28;20856;-47
2021/12/16 10:33:15;;;;;;;40.83;26.93;;;10.20;99.90;;;;;;5081119;28;20476;-47
2021/12/16 10:35:47;;;;;;;40.70;26.50;;;10.30;99.90;;;;;;5076507;28;20487;-48
2021/12/16 10:38:18;;;;;;;33.90;23.80;;;10.30;99.90;;;;;;5082468;28;20486;-49
2021/12/16 10:40:49;;;;;;;40.33;27.67;;;10.40;99.90;;;;;;5064998;28;20557;-47
2021/12/16 10:43:24;;;;;;;38.80;26.20;;;10.50;99.90;;;;;;5068332;28;20941;-47
2021/12/16 10:45:53;;;;;;;33.30;24.53;;;10.60;99.90;;;;;;5070912;28;20471;-47
2021/12/16 10:48:24;;;;;;;38.43;24.70;;;10.60;99.90;;;;;;5072586;28;20614;-47
2021/12/16 10:51:03;;;;;;;34.60;23.97;;;10.70;99.90;;;;;;5074004;28;20484;-47
2021/12/16 10:54:00;;;;;;;35.80;25.37;;;10.60;99.90;;;;;;5039584;28;20568;-48
2021/12/16 10:56:31;;;;;;;35.30;25.03;;;10.60;99.90;;;;;;5065175;28;20498;-48
2021/12/16 10:59:01;;;;;;;33.50;22.07;;;10.70;99.90;;;;;;5095745;28;20475;-47
2021/12/16 11:01:45;;;;;;;35.90;23.43;;;10.70;99.90;;;;;;5077885;28;20497;-47
2021/12/16 11:04:17;;;;;;;41.20;25.20;;;10.60;99.80;;;;;;5073826;28;20945;-48
2021/12/16 11:06:46;;;;;;;46.67;27.00;;;10.70;99.90;;;;;;5072410;28;20487;-47
2021/12/16 11:09:49;;;;;;;39.73;26.33;;;10.70;99.90;;;;;;5062945;28;20543;-47
2021/12/16 11:12:52;;;;;;;33.30;23.87;;;10.80;99.90;;;;;;4990123;28;20553;-47
2021/12/16 11:15:27;;;;;;;32.83;21.63;;;10.80;99.90;;;;;;5057580;28;20475;-47
2021/12/16 11:17:57;;;;;;;32.30;23.43;;;10.80;99.90;;;;;;5076708;28;20484;-48
2021/12/16 11:20:33;;;;;;;33.53;23.50;;;10.90;99.90;;;;;;5065962;28;20491;-47
2021/12/16 11:23:02;;;;;;;30.43;21.20;;;11.00;99.90;;;;;;5070876;28;20833;-48
2021/12/16 11:25:33;;;;;;;64.40;33.07;;;11.10;99.90;;;;;;5070586;28;20961;-47
2021/12/16 11:28:13;;;;;;;33.43;22.83;;;11.10;99.80;;;;;;5066836;28;20493;-48
2021/12/16 11:30:44;;;;;;;30.07;21.30;;;11.10;99.80;;;;;;5071320;28;20625;-47
2021/12/16 11:33:18;;;;;;;33.20;22.40;;;11.10;99.50;;;;;;5045550;28;20511;-47
2021/12/16 11:35:56;;;;;;;30.20;21.70;;;11.20;99.70;;;;;;5074250;28;20564;-47
2021/12/16 11:38:33;;;;;;;29.13;20.47;;;11.30;99.70;;;;;;5055253;28;20504;-48
2021/12/16 11:41:16;;;;;;;32.57;21.20;;;11.30;99.60;;;;;;5071688;28;20474;-48
2021/12/16 11:44:17;;;;;;;27.83;19.93;;;11.40;99.80;;;;;;5072075;28;20472;-48
2021/12/16 11:46:48;;;;;;;33.53;22.57;;;11.50;99.50;;;;;;5024840;28;20589;-47
2021/12/16 11:49:22;;;;;;;31.70;20.13;;;11.50;99.20;;;;;;5065435;28;20473;-48
2021/12/16 11:51:54;;;;;;;30.27;24.50;;;11.70;99.60;;;;;;5052283;28;20494;-47
2021/12/16 11:54:23;;;;;;;26.87;20.10;;;11.80;99.50;;;;;;5083698;28;20473;-47
2021/12/16 11:56:57;;;;;;;25.97;19.40;;;11.90;99.20;;;;;;5048544;28;20919;-48
2021/12/16 11:59:28;;;;;;;32.43;20.77;;;12.00;99.10;;;;;;5079822;28;20472;-48
2021/12/16 12:01:56;;;;;;;25.67;18.87;;;12.10;99.00;;;;;;5074435;28;20517;-48
2021/12/16 12:04:30;;;;;;;25.27;17.47;;;12.10;98.70;;;;;;5078696;28;20481;-47
2021/12/16 12:06:58;;;;;;;25.97;17.77;;;12.20;98.60;;;;;;5065109;28;20530;-48
2021/12/16 12:09:35;;;;;;;25.50;18.43;;;12.30;99.00;;;;;;5067765;28;20485;-47
2021/12/16 12:12:04;;;;;;;27.40;18.80;;;12.40;98.70;;;;;;5077465;28;20891;-48
2021/12/16 12:14:35;;;;;;;27.43;16.83;;;12.40;98.30;;;;;;5076218;28;20527;-48
2021/12/16 12:17:08;;;;;;;25.03;18.23;;;12.40;98.30;;;;;;5064550;28;20507;-48
2021/12/16 12:19:42;;;;;;;26.73;17.80;;;12.50;98.20;;;;;;5070041;28;20488;-48
2021/12/16 12:22:08;;;;;;;19.77;15.83;;;12.60;97.70;;;;;;5092094;28;20472;-48
2021/12/16 12:24:39;;;;;;;23.60;16.40;;;12.70;97.70;;;;;;5067650;28;20497;-48
2021/12/16 12:27:09;;;;;;;16.83;14.40;;;12.70;97.50;;;;;;5076525;28;20481;-48
2021/12/16 12:29:39;;;;;;;20.03;15.83;;;12.60;97.40;;;;;;5064615;28;20508;-49
2021/12/16 12:32:09;;;;;;;22.50;14.10;;;12.60;97.60;;;;;;5071377;28;20507;-47
2021/12/16 12:34:38;;;;;;;20.37;14.57;;;12.60;96.80;;;;;;5082842;28;20482;-48
2021/12/16 12:37:09;;;;;;;20.80;14.50;;;12.50;97.60;;;;;;5043258;28;20878;-48
2021/12/16 12:39:42;;;;;;;18.33;14.63;;;12.50;97.20;;;;;;5057188;28;21037;-48
2021/12/16 12:42:12;;;;;;;21.03;15.63;;;12.40;97.10;;;;;;5061975;28;20460;-47
2021/12/16 12:44:40;;;;;;;21.97;15.77;;;12.40;97.20;;;;;;5074599;28;20477;-52
2021/12/16 12:47:12;;;;;;;19.83;14.73;;;12.40;97.30;;;;;;5071623;28;20884;-47
2021/12/16 12:49:39;;;;;;;18.83;14.47;;;12.30;97.30;;;;;;5054679;28;20496;-48
2021/12/16 12:52:08;;;;;;;20.37;15.83;;;12.30;97.20;;;;;;5075165;28;21395;-48
2021/12/16 12:54:37;;;;;;;17.37;12.20;;;12.20;97.10;;;;;;5083279;28;20576;-48
2021/12/16 12:57:21;;;;;;;15.13;10.60;;;12.10;96.80;;;;;;5079258;28;20505;-47
2021/12/16 12:59:48;;;;;;;15.23;10.60;;;11.90;96.60;;;;;;5073320;28;20480;-48
2021/12/16 13:02:19;;;;;;;25.00;10.10;;;11.80;96.50;;;;;;5080346;28;20534;-48
2021/12/16 13:04:50;;;;;;;15.83;10.77;;;11.70;96.60;;;;;;5078064;28;20533;-48
2021/12/16 13:07:17;;;;;;;15.30;11.43;;;11.60;96.90;;;;;;5082796;28;21173;-49
2021/12/16 13:09:46;;;;;;;22.60;13.17;;;11.50;97.00;;;;;;5075742;28;20518;-48
2021/12/16 13:12:40;;;;;;;13.60;11.50;;;11.50;96.90;;;;;;5070450;28;20479;-47
2021/12/16 13:15:30;;;;;;;18.13;12.37;;;11.40;96.90;;;;;;5079126;28;20492;-47
2021/12/16 13:24:11;;;;;;;16.63;12.50;;;11.30;96.80;;;;;;5081663;28;20529;-48
2021/12/16 13:26:43;;;;;;;13.50;11.50;;;11.20;96.80;;;;;;5080257;28;20511;-48
2021/12/16 13:29:28;;;;;;;21.17;12.83;;;11.20;96.60;;;;;;5084338;28;20855;-47
2021/12/16 13:32:08;;;;;;;18.20;12.00;;;11.10;96.70;;;;;;5080624;28;20470;-48
2021/12/16 13:34:42;;;;;;;13.77;10.50;;;11.10;96.80;;;;;;5081922;28;20473;-48
2021/12/16 13:37:20;;;;;;;12.73;9.37;;;11.20;96.80;;;;;;5082546;28;20537;-48
2021/12/16 13:39:49;;;;;;;8.67;6.53;;;11.30;96.60;;;;;;5081377;28;20541;-48
2021/12/16 13:42:17;;;;;;;10.60;7.90;;;11.50;96.10;;;;;;5080340;28;20549;-47
2021/12/16 13:44:52;;;;;;;7.50;5.60;;;11.70;96.20;;;;;;5074785;28;20552;-47
2021/12/16 13:47:33;;;;;;;8.00;6.10;;;11.80;95.60;;;;;;5068667;28;20523;-47
2021/12/16 14:02:51;;;;;;;7.57;5.70;;;12.60;94.50;;;;;;5067922;28;20481;-47
2021/12/16 14:05:26;;;;;;;7.80;5.23;;;12.70;95.10;;;;;;5076192;28;20481;-47
2021/12/16 14:07:56;;;;;;;7.10;5.00;;;12.80;94.00;;;;;;5068321;28;20482;-48
2021/12/16 14:10:34;;;;;;;6.03;5.10;;;12.80;93.80;;;;;;5079503;28;21227;-47
2021/12/16 14:16:14;;;;;;;9.70;5.73;;;12.90;93.80;;;;;;5075031;28;20515;-47
2021/12/16 14:25:10;;;;;;;7.37;6.57;;;13.00;93.80;;;;;;5071662;28;20532;-47
2021/12/16 14:36:44;;;;;;;7.10;6.40;;;13.00;93.60;;;;;;5070788;28;20502;-48
2021/12/16 14:39:29;;;;;;;5.90;5.40;;;12.90;93.40;;;;;;5080769;28;20466;-47
2021/12/16 14:42:16;;;;;;;38.40;24.10;;;12.60;93.40;;;;;;5079704;28;20955;-48
2021/12/16 14:47:56;;;;;;;21.43;15.13;;;12.00;93.00;;;;;;5075620;28;20485;-47
2021/12/16 14:50:28;;;;;;;39.80;26.63;;;11.70;93.20;;;;;;5080385;28;20491;-47
2021/12/16 14:52:57;;;;;;;77.33;53.30;;;11.40;93.50;;;;;;5079823;28;20485;-48
2021/12/16 14:55:26;;;;;;;54.23;38.87;;;11.30;93.80;;;;;;5074564;28;20539;-48
2021/12/16 14:57:55;;;;;;;14.57;7.60;;;11.00;93.40;;;;;;5083073;28;20895;-48
2021/12/16 15:00:29;;;;;;;16.03;10.73;;;10.80;93.70;;;;;;5079946;28;21035;-48
2021/12/16 15:03:02;;;;;;;55.30;34.53;;;10.60;93.90;;;;;;5074804;28;20485;-48
2021/12/16 15:05:33;;;;;;;46.47;26.17;;;10.60;94.70;;;;;;5076683;28;21046;-48
2021/12/16 15:08:07;;;;;;;30.33;19.73;;;10.70;95.00;;;;;;5080535;28;20569;-48
2021/12/16 15:10:35;;;;;;;42.03;21.83;;;10.80;95.10;;;;;;5075769;28;20483;-48
2021/12/16 15:13:08;;;;;;;19.80;11.17;;;10.80;95.20;;;;;;5070481;28;20534;-49
2021/12/16 15:15:43;;;;;;;12.17;9.27;;;10.90;95.40;;;;;;5089183;28;20492;-48